La Salle, MI (48145)

9:18 PM EDT on April 30, 2017 (GMT -0400)
La Salle | | Change Station

Elev 610 ft 41.87 °N, 83.47 °W | Updated 11 seconds ago

Overcast
Overcast
54.3 °F
Feels Like 54.3 °F
N
0.0
Wind Variable Wind from ENE
Gusts 0.0 mph

Today
High -- | Low -- °F
--% Chance of Precip.
Yesterday
High -- | Low -- °F
Precip. -- in
Pressure 29.80 in
Visibility 5.0 miles
Clouds Overcast 300 ft
Dew Point 54 °F
Humidity 97%
Rainfall 0.63 in
Snow Depth Not available.
6:31 AM 8:31 PM
Waxing Crescent, 28% visible
METAR KTTF 010113Z AUTO 09009KT 5SM -RA OVC003 12/12 A2980 RMK AO2 T01180115
Pressure 29.80 in
Visibility 5.0 miles
Clouds Overcast 300 ft
Dew Point 54 °F
Humidity 97%
Rainfall 0.63 in
Snow Depth Not available.
6:31 AM 8:31 PM
Waxing Crescent, 28% visible
METAR KTTF 010113Z AUTO 09009KT 5SM -RA OVC003 12/12 A2980 RMK AO2 T01180115

Get Severe Weather Alerts

Thanks for signing up!

Be on the lookout for a verification email in your inbox.

You'll start receiving the daily forecast at 8 AM.

×

10-Day Weather Forecast

Almanac

Astronomy

Apr. 30, 2017 Rise Set
Actual Time
Civil Twilight
Nautical Twilight
Astronomical Twilight
Moon
Length of Visible Light
Length of Day
Tomorrow will be .
, % of the Moon is Illuminated

Today's Extremes

State Highs State Lows

Community

WunderPhotos

WunderBlog® & News

Nearby

Air Quality

  Air Quality AQ Index Pollutant
Not available.

Snow Depth

Station Depth Elevation

Earthquake Activity

City Distance Mag. Time & Date
Minimum magnitude displayed is 2.5.

Coastal Water Temperatures

Place Temperature

Stations

Nearby Weather Stations

Station Location Temp. Windchill Dew Point Humidity Wind Precip. Elev Updated Type
                   

Watches & Warnings

There are currently no watches in effect.